createdAt,value
2022-12-29T00:01:11.975Z,9.07
2022-12-29T00:03:41.752Z,8.77
2022-12-29T00:06:10.207Z,8.99
2022-12-29T00:08:44.195Z,9.11
2022-12-29T00:11:14.682Z,9.06
2022-12-29T00:13:57.155Z,9.03
2022-12-29T00:16:25.684Z,9.04
2022-12-29T00:18:55.491Z,8.87
2022-12-29T00:21:41.554Z,9.08
2022-12-29T00:24:29.933Z,8.95
2022-12-29T00:27:18.403Z,9.17
2022-12-29T00:30:03.937Z,9.32
2022-12-29T00:32:49.812Z,9.40
2022-12-29T00:35:24.921Z,9.22
2022-12-29T00:38:11.559Z,9.23
2022-12-29T00:40:57.044Z,9.47
2022-12-29T00:43:42.734Z,9.18
2022-12-29T00:46:16.009Z,9.24
2022-12-29T00:49:05.771Z,9.55
2022-12-29T00:51:35.448Z,9.21
2022-12-29T00:54:03.873Z,9.32
2022-12-29T00:56:32.259Z,9.02
2022-12-29T00:59:02.611Z,9.08
2022-12-29T01:01:31.207Z,9.26
2022-12-29T01:04:03.778Z,9.24
2022-12-29T01:06:33.513Z,9.01
2022-12-29T01:09:20.672Z,9.09
2022-12-29T01:11:49.237Z,9.16
2022-12-29T01:14:18.006Z,9.14
2022-12-29T01:16:47.155Z,8.83
2022-12-29T01:19:16.188Z,9.10
2022-12-29T01:21:46.966Z,8.98
2022-12-29T01:24:17.535Z,9.08
2022-12-29T01:26:46.463Z,9.10
2022-12-29T01:29:16.231Z,9.24
2022-12-29T01:31:45.233Z,9.06
2022-12-29T01:34:14.220Z,9.02
2022-12-29T01:36:42.656Z,8.69
2022-12-29T01:39:11.041Z,8.76
2022-12-29T01:41:40.934Z,8.84
2022-12-29T01:44:50.958Z,8.86
2022-12-29T01:47:25.441Z,8.85
2022-12-29T01:49:56.016Z,8.93
2022-12-29T01:52:24.306Z,8.87
2022-12-29T01:54:55.072Z,8.68
2022-12-29T01:57:28.181Z,8.65
2022-12-29T01:59:58.892Z,8.86
2022-12-29T02:02:30.204Z,8.85
2022-12-29T02:05:04.702Z,8.78
2022-12-29T02:07:33.583Z,8.93
2022-12-29T02:10:04.055Z,8.87
2022-12-29T02:12:33.797Z,8.83
2022-12-29T02:15:04.695Z,9.09
2022-12-29T02:17:46.557Z,8.72
2022-12-29T02:20:40.187Z,8.65
2022-12-29T02:23:41.200Z,8.84
2022-12-29T02:26:21.524Z,8.65
2022-12-29T02:29:14.265Z,8.92
2022-12-29T02:31:47.843Z,8.99
2022-12-29T02:34:24.454Z,8.79
2022-12-29T02:37:01.639Z,9.12
2022-12-29T02:39:35.666Z,8.87
2022-12-29T02:42:11.166Z,9.04
2022-12-29T02:44:46.787Z,8.80
2022-12-29T02:47:20.389Z,8.64
2022-12-29T02:49:54.663Z,8.79
2022-12-29T02:52:28.682Z,9.08
2022-12-29T02:54:56.255Z,9.25
2022-12-29T02:57:32.960Z,8.82
2022-12-29T03:00:05.253Z,9.12
2022-12-29T03:02:47.225Z,9.23
2022-12-29T03:05:21.570Z,9.22
2022-12-29T03:07:55.176Z,9.32
2022-12-29T03:10:37.745Z,9.40
2022-12-29T03:13:30.792Z,9.49
2022-12-29T03:16:05.194Z,9.62
2022-12-29T03:18:49.856Z,9.64
2022-12-29T03:21:21.957Z,9.44
2022-12-29T03:23:51.175Z,9.58
2022-12-29T03:26:20.605Z,9.97
2022-12-29T03:28:53.451Z,9.66
2022-12-29T03:31:22.406Z,9.86
2022-12-29T03:33:52.694Z,10.01
2022-12-29T03:36:25.857Z,9.96
2022-12-29T03:38:59.462Z,9.98
2022-12-29T03:41:30.937Z,9.91
2022-12-29T03:43:59.174Z,9.97
2022-12-29T03:46:27.460Z,10.09
2022-12-29T03:48:57.113Z,10.03
2022-12-29T03:51:25.476Z,9.88
2022-12-29T03:53:53.745Z,9.77
2022-12-29T03:56:22.097Z,10.02
2022-12-29T03:58:50.448Z,9.98
2022-12-29T04:01:18.834Z,10.10
2022-12-29T04:03:47.375Z,10.02
2022-12-29T04:06:17.221Z,10.50
2022-12-29T04:08:45.540Z,10.32
2022-12-29T04:11:13.920Z,10.20
2022-12-29T04:13:42.706Z,10.41
2022-12-29T04:16:10.986Z,10.60
2022-12-29T04:18:39.277Z,10.54
2022-12-29T04:21:08.145Z,10.74
2022-12-29T04:23:39.139Z,10.33
2022-12-29T04:26:09.957Z,10.27
2022-12-29T04:28:38.719Z,10.22
2022-12-29T04:31:07.631Z,10.74
2022-12-29T04:33:35.933Z,10.72
2022-12-29T04:36:04.805Z,10.53
2022-12-29T04:38:33.076Z,10.92
2022-12-29T04:41:03.120Z,10.78
2022-12-29T04:43:31.526Z,10.63
2022-12-29T04:45:59.925Z,10.79
2022-12-29T04:48:28.312Z,11.04
2022-12-29T04:50:56.672Z,10.73
2022-12-29T04:53:25.093Z,10.53
2022-12-29T04:55:54.504Z,10.94
2022-12-29T04:58:24.391Z,10.72
2022-12-29T05:00:53.159Z,10.92
2022-12-29T05:03:22.859Z,10.96
2022-12-29T05:05:55.592Z,11.13
2022-12-29T05:08:27.978Z,11.11
2022-12-29T05:10:56.964Z,11.16
2022-12-29T05:13:26.703Z,10.95
2022-12-29T05:15:55.486Z,11.09
2022-12-29T05:18:23.995Z,11.27
2022-12-29T05:20:52.512Z,11.48
2022-12-29T05:23:20.754Z,11.52
2022-12-29T05:25:48.999Z,11.05
2022-12-29T05:28:17.263Z,11.39
2022-12-29T05:30:50.376Z,11.21
2022-12-29T05:33:19.132Z,11.55
2022-12-29T05:35:47.467Z,11.29
2022-12-29T05:38:15.778Z,11.59
2022-12-29T05:40:44.995Z,11.57
2022-12-29T05:43:13.240Z,11.28
2022-12-29T05:45:41.420Z,11.30
2022-12-29T05:48:11.035Z,11.36
2022-12-29T05:50:39.278Z,11.38
2022-12-29T05:53:07.582Z,11.69
2022-12-29T05:55:36.488Z,11.53
2022-12-29T05:58:04.735Z,11.27
2022-12-29T06:00:33.014Z,11.56
2022-12-29T06:03:01.780Z,11.69
2022-12-29T06:05:31.520Z,11.73
2022-12-29T06:07:59.777Z,11.79
2022-12-29T06:10:28.376Z,11.42
2022-12-29T06:12:56.709Z,11.37
2022-12-29T06:15:25.020Z,11.61
2022-12-29T06:17:53.215Z,11.50
2022-12-29T06:20:21.440Z,11.62
2022-12-29T06:22:51.096Z,11.60
2022-12-29T06:25:19.391Z,11.31
2022-12-29T06:27:47.654Z,11.50
2022-12-29T06:30:17.176Z,11.71
2022-12-29T06:32:46.746Z,11.61
2022-12-29T06:35:14.913Z,11.93
2022-12-29T06:37:43.090Z,11.81
2022-12-29T06:40:13.749Z,11.88
2022-12-29T06:42:41.885Z,11.93
2022-12-29T06:45:10.837Z,11.76
2022-12-29T06:47:39.054Z,11.94
2022-12-29T06:50:08.031Z,11.96
2022-12-29T06:52:36.743Z,11.70
2022-12-29T06:55:05.852Z,11.89
2022-12-29T06:57:35.897Z,11.40
2022-12-29T07:00:05.875Z,11.77
2022-12-29T07:02:34.358Z,11.93
2022-12-29T07:05:02.722Z,12.14
2022-12-29T07:07:30.998Z,12.24
2022-12-29T07:09:59.269Z,12.41
2022-12-29T07:12:27.560Z,12.38
2022-12-29T07:14:57.171Z,12.13
2022-12-29T07:17:25.514Z,12.40
2022-12-29T07:19:53.878Z,12.29
2022-12-29T07:22:22.484Z,12.34
2022-12-29T07:24:50.762Z,12.39
2022-12-29T07:27:19.062Z,12.55
2022-12-29T07:29:47.311Z,12.26
2022-12-29T07:32:17.058Z,12.57
2022-12-29T07:34:46.300Z,12.66
2022-12-29T07:37:15.061Z,12.72
2022-12-29T07:39:44.057Z,12.49
2022-12-29T07:42:12.503Z,12.79
2022-12-29T07:44:40.910Z,12.93
2022-12-29T07:47:09.193Z,13.00
2022-12-29T07:49:38.825Z,12.88
2022-12-29T07:52:07.172Z,12.97
2022-12-29T07:54:35.456Z,12.78
2022-12-29T07:57:03.712Z,13.09
2022-12-29T07:59:32.162Z,12.91
2022-12-29T08:02:00.521Z,12.78
2022-12-29T08:04:28.883Z,12.79
2022-12-29T08:06:58.526Z,12.75
2022-12-29T08:09:26.918Z,12.66
2022-12-29T08:11:55.831Z,12.64
2022-12-29T08:14:24.044Z,12.97
2022-12-29T08:16:52.400Z,13.10
2022-12-29T08:19:20.698Z,13.15
2022-12-29T08:21:49.022Z,13.01
2022-12-29T08:24:18.742Z,13.16
2022-12-29T08:26:46.961Z,13.30
2022-12-29T08:29:15.206Z,13.33
2022-12-29T08:31:43.905Z,13.11
2022-12-29T08:34:12.181Z,13.46
2022-12-29T08:36:40.580Z,13.67
2022-12-29T08:39:09.019Z,13.50
2022-12-29T08:41:38.646Z,13.69
2022-12-29T08:44:07.186Z,13.91
2022-12-29T08:46:35.512Z,13.95
2022-12-29T08:49:03.856Z,13.74
2022-12-29T08:51:32.300Z,13.87
2022-12-29T08:54:01.206Z,14.07
2022-12-29T08:56:29.652Z,14.32
2022-12-29T08:58:59.564Z,14.32
2022-12-29T09:01:27.943Z,14.44
2022-12-29T09:06:45.521Z,14.45
2022-12-29T09:09:14.078Z,14.63
2022-12-29T09:11:42.989Z,14.94
2022-12-29T09:14:12.632Z,14.92
2022-12-29T09:16:55.265Z,14.89
2022-12-29T09:19:27.882Z,14.69
2022-12-29T09:21:56.086Z,15.14
2022-12-29T09:24:24.269Z,14.67
2022-12-29T09:26:52.621Z,14.82
2022-12-29T09:29:22.418Z,14.99
2022-12-29T09:31:50.784Z,15.14
2022-12-29T09:34:19.085Z,15.66
2022-12-29T09:36:47.311Z,15.63
2022-12-29T09:39:15.576Z,15.93
2022-12-29T09:41:48.779Z,15.99
2022-12-29T09:44:25.212Z,16.24
2022-12-29T09:46:56.080Z,16.30
2022-12-29T09:49:28.232Z,16.68
2022-12-29T09:51:58.644Z,16.87
2022-12-29T09:54:41.428Z,17.52
2022-12-29T09:57:18.095Z,16.88
2022-12-29T09:59:48.793Z,16.54
2022-12-29T10:02:33.524Z,16.37
2022-12-29T10:05:02.222Z,16.52
2022-12-29T10:07:38.948Z,16.45
2022-12-29T10:10:22.783Z,16.70
2022-12-29T10:13:01.726Z,16.94
2022-12-29T10:15:43.137Z,16.97
2022-12-29T10:18:23.090Z,16.75
2022-12-29T10:20:56.119Z,17.07
2022-12-29T10:23:29.685Z,17.18
2022-12-29T10:25:59.586Z,16.82
2022-12-29T10:28:36.568Z,16.81
2022-12-29T10:31:10.321Z,16.60
2022-12-29T10:33:41.720Z,16.62
2022-12-29T10:36:21.363Z,16.47
2022-12-29T10:38:59.505Z,16.78
2022-12-29T10:41:30.605Z,17.16
2022-12-29T10:43:59.434Z,16.51
2022-12-29T10:46:31.657Z,16.37
2022-12-29T10:48:59.940Z,16.64
2022-12-29T10:51:31.558Z,16.55
2022-12-29T10:54:02.808Z,17.11
2022-12-29T10:56:35.177Z,17.76
2022-12-29T10:59:08.700Z,17.92
2022-12-29T11:01:43.287Z,17.92
2022-12-29T11:04:28.193Z,17.68
2022-12-29T11:06:57.434Z,17.53
2022-12-29T11:09:41.553Z,18.09
2022-12-29T11:12:25.347Z,17.99
2022-12-29T11:15:05.334Z,18.13
2022-12-29T11:17:45.718Z,18.35
2022-12-29T11:20:29.751Z,18.25
2022-12-29T11:22:58.169Z,18.39
2022-12-29T11:25:26.444Z,18.26
2022-12-29T11:27:59.227Z,18.08
2022-12-29T11:30:29.572Z,18.27
2022-12-29T11:32:59.942Z,17.56
2022-12-29T11:35:37.285Z,17.42
2022-12-29T11:38:05.926Z,16.97
2022-12-29T11:40:35.221Z,16.99
2022-12-29T11:43:04.668Z,17.02
2022-12-29T11:45:35.758Z,17.14
2022-12-29T11:48:09.323Z,17.05
2022-12-29T11:50:39.736Z,16.84
2022-12-29T11:53:12.207Z,16.82
2022-12-29T11:55:40.469Z,17.44
2022-12-29T11:58:08.877Z,17.18
2022-12-29T12:00:41.309Z,16.98
2022-12-29T12:03:16.046Z,17.29
2022-12-29T12:05:51.366Z,17.78
2022-12-29T12:08:22.343Z,17.65
2022-12-29T12:10:55.120Z,18.11
2022-12-29T12:13:27.993Z,17.85
2022-12-29T12:15:59.468Z,17.70
2022-12-29T12:18:36.328Z,17.86
2022-12-29T12:21:10.625Z,18.02
2022-12-29T12:23:45.763Z,18.08
2022-12-29T12:26:16.058Z,18.35
2022-12-29T12:28:50.705Z,18.17
2022-12-29T12:31:26.316Z,18.58
2022-12-29T12:34:00.948Z,18.82
2022-12-29T12:36:45.682Z,18.20
2022-12-29T12:39:18.417Z,18.71
2022-12-29T12:41:54.429Z,18.54
2022-12-29T12:44:28.680Z,18.98
2022-12-29T12:47:11.329Z,19.26
2022-12-29T12:50:12.815Z,18.84
2022-12-29T12:52:51.893Z,18.78
2022-12-29T12:55:36.696Z,17.91
2022-12-29T12:58:10.838Z,18.13
2022-12-29T13:00:47.592Z,18.27
2022-12-29T13:03:19.768Z,18.01
2022-12-29T13:06:05.386Z,18.44
2022-12-29T13:08:48.227Z,18.53
2022-12-29T13:11:22.974Z,18.41
2022-12-29T13:14:09.832Z,18.35
2022-12-29T13:16:44.047Z,18.80
2022-12-29T13:19:16.593Z,18.52
2022-12-29T13:22:03.798Z,18.58
2022-12-29T13:24:42.613Z,18.62
2022-12-29T13:27:18.463Z,18.52
2022-12-29T13:29:51.317Z,17.96
2022-12-29T13:32:29.421Z,18.16
2022-12-29T13:35:05.491Z,18.47
2022-12-29T13:37:37.167Z,17.99
2022-12-29T13:40:15.513Z,18.09
2022-12-29T13:42:44.591Z,18.16
2022-12-29T13:45:17.019Z,17.82
2022-12-29T13:47:50.135Z,18.33
2022-12-29T13:50:21.262Z,18.15
2022-12-29T13:52:58.090Z,17.85
2022-12-29T13:55:29.743Z,17.98
2022-12-29T13:58:04.321Z,17.67
2022-12-29T14:00:37.766Z,17.59
2022-12-29T14:03:22.811Z,17.43
2022-12-29T14:06:07.314Z,17.95
2022-12-29T14:08:37.679Z,17.24
2022-12-29T14:11:10.353Z,17.63
2022-12-29T14:13:41.678Z,17.46
2022-12-29T14:16:28.774Z,17.42
2022-12-29T14:18:59.464Z,17.55
2022-12-29T14:24:41.878Z,17.24
2022-12-29T14:27:43.447Z,17.39
2022-12-29T14:30:41.430Z,17.70
2022-12-29T14:33:15.681Z,17.39
2022-12-29T14:35:46.898Z,17.10
2022-12-29T14:38:18.958Z,17.06
2022-12-29T14:40:50.104Z,16.97
2022-12-29T14:43:26.047Z,16.83
2022-12-29T14:45:57.922Z,16.98
2022-12-29T14:48:41.468Z,17.27
2022-12-29T14:51:21.010Z,17.11
2022-12-29T14:53:50.942Z,17.08
2022-12-29T14:56:22.196Z,17.16
2022-12-29T14:58:53.101Z,17.04
2022-12-29T15:01:26.037Z,16.77
2022-12-29T15:03:57.214Z,17.03
2022-12-29T15:06:27.161Z,16.47
2022-12-29T15:09:01.075Z,17.22
2022-12-29T15:11:44.274Z,16.95
2022-12-29T15:14:32.587Z,16.94
2022-12-29T15:17:01.206Z,16.76
2022-12-29T15:19:30.257Z,16.47
2022-12-29T15:21:58.970Z,16.91
2022-12-29T15:24:27.293Z,16.84
2022-12-29T15:26:57.218Z,16.70
2022-12-29T15:29:38.731Z,16.79
2022-12-29T15:32:20.923Z,16.92
2022-12-29T15:34:50.628Z,16.99
2022-12-29T15:37:24.125Z,17.18
2022-12-29T15:39:53.221Z,17.00
2022-12-29T15:42:33.372Z,17.02
2022-12-29T15:45:10.929Z,17.42
2022-12-29T15:47:41.175Z,17.44
2022-12-29T15:50:16.459Z,17.33
2022-12-29T15:52:44.898Z,17.14
2022-12-29T15:55:21.996Z,17.10
2022-12-29T15:57:51.585Z,16.76
2022-12-29T16:00:25.746Z,16.73
2022-12-29T16:02:54.722Z,16.74
2022-12-29T16:05:23.162Z,16.73
2022-12-29T16:07:56.125Z,16.94
2022-12-29T16:10:30.236Z,16.99
2022-12-29T16:13:06.447Z,16.20
2022-12-29T16:15:35.057Z,15.75
2022-12-29T16:18:03.375Z,16.30
2022-12-29T16:20:39.710Z,16.31
2022-12-29T16:23:11.198Z,16.64
2022-12-29T16:25:39.539Z,16.33
2022-12-29T16:28:19.262Z,15.89
2022-12-29T16:30:47.829Z,16.37
2022-12-29T16:33:35.202Z,16.74
2022-12-29T16:36:04.588Z,16.82
2022-12-29T16:38:34.291Z,16.68
2022-12-29T16:41:04.148Z,16.23
2022-12-29T16:43:35.853Z,16.49
2022-12-29T16:46:27.288Z,16.59
2022-12-29T16:48:56.597Z,16.53
2022-12-29T16:51:32.692Z,16.46
2022-12-29T16:54:02.061Z,16.72
2022-12-29T16:56:32.889Z,16.66
2022-12-29T16:59:05.818Z,16.70
2022-12-29T17:01:37.561Z,16.64
2022-12-29T17:04:08.804Z,16.48
2022-12-29T17:06:37.055Z,16.34
2022-12-29T17:09:18.388Z,15.94
2022-12-29T17:12:04.980Z,16.36
2022-12-29T17:14:45.441Z,16.49
2022-12-29T17:17:17.833Z,16.19
2022-12-29T17:19:49.270Z,16.81
2022-12-29T17:22:20.067Z,16.81
2022-12-29T17:24:48.342Z,16.48
2022-12-29T17:27:24.808Z,16.55
2022-12-29T17:29:55.980Z,16.54
2022-12-29T17:32:24.487Z,16.45
2022-12-29T17:34:52.797Z,16.50
2022-12-29T17:37:33.202Z,16.42
2022-12-29T17:40:01.718Z,16.44
2022-12-29T17:42:30.329Z,16.35
2022-12-29T17:45:00.336Z,16.17
2022-12-29T17:47:28.620Z,16.08
2022-12-29T17:49:56.933Z,16.03
2022-12-29T17:52:25.303Z,15.98
2022-12-29T17:54:54.262Z,15.34
2022-12-29T17:57:22.738Z,15.73
2022-12-29T17:59:51.246Z,15.78
2022-12-29T18:02:28.124Z,15.74
2022-12-29T18:04:57.033Z,15.80
2022-12-29T18:07:31.132Z,15.68
2022-12-29T18:10:04.259Z,15.71
2022-12-29T18:12:35.126Z,15.43
2022-12-29T18:15:03.456Z,15.48
2022-12-29T18:17:33.258Z,15.55
2022-12-29T18:20:01.514Z,15.62
2022-12-29T18:22:30.284Z,15.41
2022-12-29T18:24:58.522Z,15.13
2022-12-29T18:27:27.637Z,15.31
2022-12-29T18:29:55.984Z,15.64
2022-12-29T18:32:24.323Z,15.65
2022-12-29T18:34:53.918Z,15.44
2022-12-29T18:37:22.286Z,15.47
2022-12-29T18:39:51.369Z,15.59
2022-12-29T18:42:19.625Z,15.57
2022-12-29T18:44:47.860Z,15.63
2022-12-29T18:47:16.162Z,15.57
2022-12-29T18:49:44.565Z,15.63
2022-12-29T18:52:14.905Z,15.67
2022-12-29T18:54:43.161Z,15.61
2022-12-29T18:57:11.531Z,15.78
2022-12-29T18:59:41.067Z,15.78
2022-12-29T19:02:17.621Z,15.83
2022-12-29T19:04:48.919Z,15.86
2022-12-29T19:07:22.458Z,15.87
2022-12-29T19:09:50.728Z,15.85
2022-12-29T19:12:22.263Z,15.88
2022-12-29T19:14:53.599Z,15.86
2022-12-29T19:17:21.923Z,15.75
2022-12-29T19:19:50.177Z,15.84
2022-12-29T19:22:18.507Z,15.91
2022-12-29T19:24:48.286Z,15.60
2022-12-29T19:27:16.533Z,15.72
2022-12-29T19:29:44.899Z,15.74
2022-12-29T19:32:13.361Z,15.48
2022-12-29T19:34:41.911Z,15.64
2022-12-29T19:37:10.208Z,15.65
2022-12-29T19:39:38.537Z,15.73
2022-12-29T19:42:08.388Z,15.74
2022-12-29T19:44:36.819Z,15.73
2022-12-29T19:47:05.318Z,15.71
2022-12-29T19:49:33.703Z,15.80
2022-12-29T19:52:01.995Z,15.78
2022-12-29T19:54:30.313Z,15.80
2022-12-29T19:56:58.705Z,15.71
2022-12-29T19:59:28.928Z,15.75
2022-12-29T20:01:58.603Z,15.82
2022-12-29T20:04:26.952Z,15.77
2022-12-29T20:06:55.212Z,15.60
2022-12-29T20:09:23.681Z,15.74
2022-12-29T20:11:51.965Z,15.48
2022-12-29T20:14:20.273Z,15.20
2022-12-29T20:17:10.076Z,14.88
2022-12-29T20:19:40.107Z,15.09
2022-12-29T20:22:10.180Z,15.07
2022-12-29T20:24:45.191Z,14.94
2022-12-29T20:27:18.494Z,15.36
2022-12-29T20:29:47.030Z,15.30
2022-12-29T20:32:18.417Z,15.64
2022-12-29T20:34:47.758Z,15.22
2022-12-29T20:37:17.194Z,15.41
2022-12-29T20:39:49.541Z,15.50
2022-12-29T20:42:19.100Z,15.72
2022-12-29T20:44:47.968Z,15.38
2022-12-29T20:47:19.564Z,15.52
2022-12-29T20:49:49.015Z,14.88
2022-12-29T20:52:18.170Z,15.77
2022-12-29T20:54:47.381Z,15.73
2022-12-29T20:57:16.419Z,15.85
2022-12-29T20:59:45.745Z,15.82
2022-12-29T21:02:21.938Z,15.55
2022-12-29T21:05:23.392Z,15.34
2022-12-29T21:07:41.854Z,15.52
2022-12-29T21:10:10.211Z,15.77
2022-12-29T21:12:38.569Z,15.48
2022-12-29T21:15:07.897Z,15.65
2022-12-29T21:17:37.815Z,15.57
2022-12-29T21:20:06.746Z,15.48
2022-12-29T21:22:35.002Z,15.70
2022-12-29T21:25:03.311Z,15.42
2022-12-29T21:27:31.576Z,15.09
2022-12-29T21:29:59.896Z,15.26
2022-12-29T21:32:28.316Z,15.41
2022-12-29T21:34:58.041Z,15.00
2022-12-29T21:37:26.423Z,15.37
2022-12-29T21:39:54.804Z,15.45
2022-12-29T21:42:23.175Z,15.24
2022-12-29T21:45:09.127Z,15.05
2022-12-29T21:47:51.303Z,14.81
2022-12-29T21:50:20.995Z,14.51
2022-12-29T21:52:49.386Z,15.04
2022-12-29T21:55:17.990Z,14.96
2022-12-29T21:58:04.098Z,15.21
2022-12-29T22:01:01.609Z,15.40
2022-12-29T22:03:47.707Z,15.16
2022-12-29T22:06:34.806Z,15.14
2022-12-29T22:09:20.721Z,14.89
2022-12-29T22:12:06.875Z,14.92
2022-12-29T22:14:35.267Z,14.84
2022-12-29T22:17:03.702Z,14.61
2022-12-29T22:19:32.240Z,14.77
2022-12-29T22:22:02.359Z,14.65
2022-12-29T22:24:30.732Z,14.32
2022-12-29T22:26:59.099Z,14.36
2022-12-29T22:29:27.513Z,14.37
2022-12-29T22:31:55.858Z,14.66
2022-12-29T22:34:24.467Z,15.04
2022-12-29T22:36:52.780Z,14.86
2022-12-29T22:39:22.503Z,14.83
2022-12-29T22:41:50.992Z,14.43
2022-12-29T22:44:19.367Z,14.48
2022-12-29T22:46:47.742Z,14.19
2022-12-29T22:49:16.153Z,14.11
2022-12-29T22:51:44.477Z,14.32
2022-12-29T22:54:12.773Z,14.41
2022-12-29T22:56:42.857Z,14.65
2022-12-29T22:59:11.862Z,14.36
2022-12-29T23:01:40.732Z,14.34
2022-12-29T23:04:55.704Z,14.17
2022-12-29T23:06:57.749Z,14.24
2022-12-29T23:09:26.066Z,14.41
2022-12-29T23:11:55.710Z,14.49
2022-12-29T23:14:24.408Z,14.57
2022-12-29T23:16:52.595Z,14.58
2022-12-29T23:19:20.904Z,14.56
2022-12-29T23:21:49.271Z,14.63
2022-12-29T23:24:17.593Z,14.22
2022-12-29T23:26:47.333Z,14.00
2022-12-29T23:29:19.415Z,14.18
2022-12-29T23:31:48.349Z,14.21
2022-12-29T23:34:17.528Z,14.20
2022-12-29T23:36:46.162Z,14.32
2022-12-29T23:39:20.701Z,14.46
2022-12-29T23:41:49.027Z,14.00
2022-12-29T23:44:18.793Z,14.11
2022-12-29T23:46:47.226Z,14.14
2022-12-29T23:49:15.658Z,14.24
2022-12-29T23:51:43.998Z,14.29
2022-12-29T23:54:12.347Z,14.14
2022-12-29T23:56:40.661Z,14.16
2022-12-29T23:59:08.945Z,14.29
